createdAt,value
2019-03-24T00:00:59.210Z,71.41
2019-03-24T00:03:28.441Z,72.17
2019-03-24T00:05:57.333Z,72.62
2019-03-24T00:08:26.141Z,73.22
2019-03-24T00:10:55.252Z,72.64
2019-03-24T00:13:25.014Z,72.58
2019-03-24T00:15:54.145Z,73.12
2019-03-24T00:18:22.975Z,73.34
2019-03-24T00:20:52.060Z,73.09
2019-03-24T00:23:21.200Z,73.25
2019-03-24T00:25:50.016Z,73.96
2019-03-24T00:28:18.819Z,73.91
2019-03-24T00:30:47.907Z,73.90
2019-03-24T00:33:17.064Z,73.92
2019-03-24T00:35:45.864Z,74.29
2019-03-24T00:38:14.756Z,74.49
2019-03-24T00:40:43.534Z,74.41
2019-03-24T00:43:12.633Z,74.73
2019-03-24T00:45:42.856Z,74.98
2019-03-24T00:48:11.850Z,75.10
2019-03-24T00:50:41.046Z,75.43
2019-03-24T00:53:09.867Z,75.41
2019-03-24T00:55:38.687Z,75.08
2019-03-24T00:58:07.447Z,75.30
2019-03-24T01:00:44.356Z,74.95
2019-03-24T01:03:13.187Z,75.19
2019-03-24T01:05:42.012Z,75.21
2019-03-24T01:08:10.849Z,75.08
2019-03-24T01:10:39.645Z,75.64
2019-03-24T01:13:08.433Z,75.85
2019-03-24T01:15:47.279Z,76.17
2019-03-24T01:18:08.122Z,75.89
2019-03-24T01:20:37.345Z,76.55
2019-03-24T01:23:06.331Z,76.96
2019-03-24T01:25:35.258Z,76.22
2019-03-24T01:28:04.265Z,76.65
2019-03-24T01:30:33.315Z,77.00
2019-03-24T01:33:02.682Z,76.89
2019-03-24T01:35:31.540Z,77.00
2019-03-24T01:38:00.327Z,77.57
2019-03-24T01:40:29.148Z,77.49
2019-03-24T01:42:58.020Z,77.91
2019-03-24T01:45:26.998Z,77.29
2019-03-24T01:47:55.861Z,77.74
2019-03-24T01:50:24.754Z,77.45
2019-03-24T01:52:53.550Z,77.82
2019-03-24T01:55:22.692Z,78.26
2019-03-24T01:57:52.649Z,77.68
2019-03-24T02:00:21.474Z,78.55
2019-03-24T02:02:50.733Z,79.01
2019-03-24T02:05:19.600Z,78.96
2019-03-24T02:07:48.487Z,78.73
2019-03-24T02:10:17.451Z,79.03
2019-03-24T02:12:46.346Z,78.48
2019-03-24T02:15:15.134Z,78.20
2019-03-24T02:17:43.973Z,78.85
2019-03-24T02:20:14.709Z,78.25
2019-03-24T02:22:43.579Z,78.27
2019-03-24T02:25:12.699Z,78.09
2019-03-24T02:27:41.935Z,77.99
2019-03-24T02:30:12.895Z,78.29
2019-03-24T02:32:41.968Z,78.46
2019-03-24T02:35:11.706Z,78.77
2019-03-24T02:37:40.803Z,79.14
2019-03-24T02:40:19.935Z,79.18
2019-03-24T02:42:47.953Z,79.73
2019-03-24T02:45:17.158Z,80.43
2019-03-24T02:47:46.112Z,80.27
2019-03-24T02:50:15.319Z,80.04
2019-03-24T02:52:44.728Z,79.63
2019-03-24T02:55:13.605Z,80.17
2019-03-24T02:57:42.744Z,80.42
2019-03-24T03:00:12.109Z,80.35
2019-03-24T03:02:40.974Z,80.24
2019-03-24T03:05:10.720Z,79.95
2019-03-24T03:07:39.848Z,80.11
2019-03-24T03:10:09.166Z,80.82
2019-03-24T03:12:37.987Z,81.41
2019-03-24T03:15:07.712Z,81.58
2019-03-24T03:17:36.485Z,81.33
2019-03-24T03:20:06.217Z,80.18
2019-03-24T03:22:35.471Z,80.18
2019-03-24T03:25:05.109Z,80.68
2019-03-24T03:27:34.025Z,80.53
2019-03-24T03:30:03.119Z,81.34
2019-03-24T03:32:32.075Z,81.73
2019-03-24T03:35:01.049Z,82.10
2019-03-24T03:37:29.881Z,82.40
2019-03-24T03:39:58.780Z,83.20
2019-03-24T03:42:27.942Z,83.53
2019-03-24T03:44:56.905Z,83.57
2019-03-24T03:47:25.718Z,83.86
2019-03-24T03:49:54.890Z,83.83
2019-03-24T03:52:23.677Z,83.86
2019-03-24T03:54:52.458Z,83.30
2019-03-24T03:57:21.254Z,82.58
2019-03-24T03:59:50.180Z,82.74
2019-03-24T04:02:20.614Z,83.47
2019-03-24T04:04:49.629Z,82.86
2019-03-24T04:07:18.427Z,82.33
2019-03-24T04:09:47.302Z,82.18
2019-03-24T04:12:16.466Z,82.50
2019-03-24T04:14:45.302Z,82.74
2019-03-24T04:17:14.565Z,82.77
2019-03-24T04:19:43.770Z,82.61
2019-03-24T04:22:12.624Z,82.31
2019-03-24T04:24:41.410Z,82.75
2019-03-24T04:27:10.341Z,82.38
2019-03-24T04:29:39.497Z,82.52
2019-03-24T04:32:08.364Z,82.55
2019-03-24T04:34:37.500Z,82.71
2019-03-24T04:37:06.312Z,81.90
2019-03-24T04:39:35.591Z,82.30
2019-03-24T04:42:04.416Z,82.25
2019-03-24T04:44:34.093Z,82.45
2019-03-24T04:47:02.903Z,83.68
2019-03-24T04:49:33.397Z,82.25
2019-03-24T04:52:02.546Z,82.08
2019-03-24T04:54:31.776Z,81.50
2019-03-24T04:57:00.928Z,81.25
2019-03-24T04:59:30.730Z,81.43
2019-03-24T05:01:59.531Z,81.94
2019-03-24T05:04:28.423Z,82.40
2019-03-24T05:06:57.428Z,82.54
2019-03-24T05:09:26.801Z,83.36
2019-03-24T05:11:55.620Z,83.88
2019-03-24T05:14:24.425Z,83.92
2019-03-24T05:16:53.628Z,83.65
2019-03-24T05:19:22.521Z,84.02
2019-03-24T05:21:51.465Z,84.52
2019-03-24T05:24:20.256Z,84.71
2019-03-24T05:26:49.075Z,84.52
2019-03-24T05:29:17.844Z,84.47
2019-03-24T05:31:46.638Z,84.44
2019-03-24T05:34:15.924Z,84.20
2019-03-24T05:36:44.801Z,83.86
2019-03-24T05:39:13.614Z,83.20
2019-03-24T05:41:44.158Z,82.31
2019-03-24T05:44:13.389Z,82.50
2019-03-24T05:46:42.150Z,83.04
2019-03-24T05:49:10.966Z,82.41
2019-03-24T05:51:39.869Z,82.20
2019-03-24T05:54:08.795Z,82.59
2019-03-24T05:56:37.743Z,82.80
2019-03-24T05:59:06.463Z,82.68
2019-03-24T06:01:35.310Z,82.43
2019-03-24T06:04:04.252Z,82.33
2019-03-24T06:06:33.093Z,82.68
2019-03-24T06:09:02.156Z,82.38
2019-03-24T06:11:33.214Z,82.27
2019-03-24T06:14:02.017Z,81.64
2019-03-24T06:16:30.838Z,81.36
2019-03-24T06:18:59.710Z,80.38
2019-03-24T06:21:28.651Z,80.01
2019-03-24T06:23:57.451Z,78.41
2019-03-24T06:26:26.362Z,77.67
2019-03-24T06:28:55.305Z,77.55
2019-03-24T06:31:24.138Z,77.90
2019-03-24T06:33:52.983Z,76.80
2019-03-24T06:36:21.900Z,76.30
2019-03-24T06:38:50.936Z,75.50
2019-03-24T06:41:20.641Z,75.20
2019-03-24T06:43:49.461Z,75.01
2019-03-24T06:46:18.246Z,75.28
2019-03-24T06:48:47.128Z,75.61
2019-03-24T06:51:16.131Z,76.15
2019-03-24T06:53:44.910Z,76.66
2019-03-24T06:56:13.746Z,74.82
2019-03-24T06:58:42.565Z,73.81
2019-03-24T07:01:11.931Z,73.42
2019-03-24T07:03:41.032Z,72.96
2019-03-24T07:06:09.812Z,72.67
2019-03-24T07:08:39.050Z,73.01
2019-03-24T07:11:13.353Z,71.33
2019-03-24T07:13:39.258Z,70.77
2019-03-24T07:16:08.196Z,71.82
2019-03-24T07:18:36.972Z,71.05
2019-03-24T07:21:05.886Z,70.18
2019-03-24T07:23:34.810Z,70.22
2019-03-24T07:26:03.770Z,71.11
2019-03-24T07:28:32.644Z,70.39
2019-03-24T07:31:01.985Z,69.85
2019-03-24T07:33:30.866Z,70.49
2019-03-24T07:35:59.695Z,70.20
2019-03-24T07:38:28.865Z,68.98
2019-03-24T07:40:58.441Z,69.55
2019-03-24T07:43:27.670Z,68.97
2019-03-24T07:45:56.488Z,69.89
2019-03-24T07:48:25.274Z,71.03
2019-03-24T07:50:54.094Z,70.32
2019-03-24T07:53:22.857Z,69.24
2019-03-24T07:55:51.671Z,67.10
2019-03-24T07:58:20.768Z,66.47
2019-03-24T08:00:49.698Z,65.64
2019-03-24T08:03:19.107Z,67.45
2019-03-24T08:05:48.016Z,66.35
2019-03-24T08:08:17.497Z,65.43
2019-03-24T08:10:46.619Z,66.32
2019-03-24T08:13:15.552Z,66.74
2019-03-24T08:15:44.328Z,63.92
2019-03-24T08:18:13.186Z,63.64
2019-03-24T08:20:43.273Z,63.60
2019-03-24T08:23:12.376Z,64.04
2019-03-24T08:25:41.200Z,64.23
2019-03-24T08:28:10.418Z,66.20
2019-03-24T08:30:39.458Z,66.15
2019-03-24T08:33:08.302Z,64.30
2019-03-24T08:35:37.233Z,62.97
2019-03-24T08:38:06.151Z,62.89
2019-03-24T08:40:34.895Z,62.22
2019-03-24T08:43:04.051Z,63.05
2019-03-24T08:45:32.831Z,63.11
2019-03-24T08:48:01.665Z,63.01
2019-03-24T08:50:30.423Z,62.63
2019-03-24T08:53:02.063Z,61.57
2019-03-24T08:55:32.081Z,61.16
2019-03-24T08:58:00.894Z,60.75
2019-03-24T09:00:30.772Z,59.53
2019-03-24T09:03:00.080Z,59.95
2019-03-24T09:05:30.750Z,59.54
2019-03-24T09:07:59.598Z,58.66
2019-03-24T09:10:29.861Z,58.17
2019-03-24T09:12:58.841Z,59.74
2019-03-24T09:15:27.714Z,60.73
2019-03-24T09:17:56.667Z,60.11
2019-03-24T09:20:25.455Z,59.38
2019-03-24T09:22:54.261Z,59.27
2019-03-24T09:25:23.192Z,57.96
2019-03-24T09:27:52.166Z,57.17
2019-03-24T09:30:33.234Z,56.02
2019-03-24T09:33:02.417Z,55.89
2019-03-24T09:35:31.274Z,56.91
2019-03-24T09:38:00.494Z,56.56
2019-03-24T09:40:30.986Z,57.49
2019-03-24T09:43:00.246Z,55.84
2019-03-24T09:45:30.602Z,55.00
2019-03-24T09:47:59.964Z,55.85
2019-03-24T09:50:28.834Z,54.85
2019-03-24T09:52:57.749Z,53.91
2019-03-24T09:55:26.541Z,54.40
2019-03-24T09:57:55.927Z,54.16
2019-03-24T10:00:24.665Z,54.38
2019-03-24T10:02:54.108Z,54.48
2019-03-24T10:05:23.628Z,53.72
2019-03-24T10:07:52.720Z,53.45
2019-03-24T10:10:21.598Z,52.45
2019-03-24T10:12:51.734Z,51.38
2019-03-24T10:15:22.368Z,52.05
2019-03-24T10:17:51.199Z,52.40
2019-03-24T10:20:20.055Z,51.69
2019-03-24T10:22:48.929Z,52.24
2019-03-24T10:25:17.944Z,51.91
2019-03-24T10:27:47.811Z,51.71
2019-03-24T10:30:16.666Z,51.94
2019-03-24T10:32:45.446Z,52.49
2019-03-24T10:35:14.616Z,51.55
2019-03-24T10:37:43.748Z,52.06
2019-03-24T10:40:12.966Z,52.57
2019-03-24T10:42:41.762Z,52.14
2019-03-24T10:45:10.772Z,51.76
2019-03-24T10:47:39.755Z,52.73
2019-03-24T10:50:09.447Z,52.22
2019-03-24T10:52:38.408Z,51.58
2019-03-24T10:55:08.768Z,50.49
2019-03-24T10:57:37.943Z,50.58
2019-03-24T11:00:08.780Z,50.36
2019-03-24T11:02:37.938Z,51.26
2019-03-24T11:05:07.032Z,50.95
2019-03-24T11:07:35.892Z,50.18
2019-03-24T11:10:06.015Z,49.47
2019-03-24T11:12:34.852Z,48.56
2019-03-24T11:15:04.623Z,48.32
2019-03-24T11:17:33.855Z,49.21
2019-03-24T11:20:03.047Z,49.26
2019-03-24T11:22:32.175Z,48.95
2019-03-24T11:25:02.197Z,49.21
2019-03-24T11:27:31.578Z,49.29
2019-03-24T11:30:00.537Z,49.94
2019-03-24T11:32:29.394Z,49.64
2019-03-24T11:34:58.210Z,49.65
2019-03-24T11:37:27.317Z,47.82
2019-03-24T11:39:56.161Z,48.38
2019-03-24T11:42:25.331Z,48.54
2019-03-24T11:44:54.218Z,48.67
2019-03-24T11:47:26.781Z,47.68
2019-03-24T11:49:54.613Z,47.23
2019-03-24T11:52:23.441Z,48.39
2019-03-24T11:54:52.581Z,48.09
2019-03-24T11:57:21.477Z,47.97
2019-03-24T11:59:50.365Z,47.21
2019-03-24T12:02:19.310Z,48.02
2019-03-24T12:04:48.133Z,47.70
2019-03-24T12:07:16.923Z,46.84
2019-03-24T12:09:46.277Z,46.33
2019-03-24T12:12:15.525Z,45.21
2019-03-24T12:14:44.382Z,45.09
2019-03-24T12:17:13.247Z,44.50
2019-03-24T12:19:42.410Z,44.53
2019-03-24T12:22:20.219Z,43.22
2019-03-24T12:24:50.350Z,42.58
2019-03-24T12:27:19.199Z,43.60
2019-03-24T12:29:48.085Z,45.98
2019-03-24T12:32:17.595Z,45.58
2019-03-24T12:34:46.481Z,44.27
2019-03-24T12:37:15.293Z,43.42
2019-03-24T12:39:44.410Z,44.49
2019-03-24T12:42:13.301Z,44.64
2019-03-24T12:44:42.233Z,44.32
2019-03-24T12:47:11.059Z,45.31
2019-03-24T12:49:39.870Z,45.21
2019-03-24T12:52:12.877Z,43.71
2019-03-24T12:54:41.168Z,42.20
2019-03-24T12:57:10.232Z,42.21
2019-03-24T12:59:39.051Z,39.82
2019-03-24T13:02:07.828Z,40.29
2019-03-24T13:04:37.823Z,40.99
2019-03-24T13:07:06.607Z,41.07
2019-03-24T13:09:35.517Z,40.03
2019-03-24T13:12:04.304Z,40.68
2019-03-24T13:14:33.122Z,40.76
2019-03-24T13:17:01.998Z,40.34
2019-03-24T13:19:30.814Z,40.70
2019-03-24T13:22:00.850Z,41.20
2019-03-24T13:24:29.739Z,40.42
2019-03-24T13:26:58.603Z,38.73
2019-03-24T13:29:27.549Z,37.32
2019-03-24T13:31:56.362Z,36.45
2019-03-24T13:34:25.474Z,36.46
2019-03-24T13:36:54.639Z,35.06
2019-03-24T13:39:23.551Z,36.03
2019-03-24T13:41:52.379Z,33.85
2019-03-24T13:44:21.246Z,33.02
2019-03-24T13:46:50.066Z,31.93
2019-03-24T13:49:19.547Z,33.26
2019-03-24T13:51:48.319Z,31.91
2019-03-24T13:54:17.440Z,31.35
2019-03-24T13:56:46.520Z,29.87
2019-03-24T13:59:15.302Z,31.03
2019-03-24T14:01:44.321Z,33.49
2019-03-24T14:04:13.110Z,33.57
2019-03-24T14:06:41.950Z,32.75
2019-03-24T14:09:11.299Z,33.51
2019-03-24T14:11:40.211Z,33.27
2019-03-24T14:14:09.035Z,34.45
2019-03-24T14:16:37.883Z,33.11
2019-03-24T14:19:06.785Z,32.10
2019-03-24T14:21:35.651Z,30.77
2019-03-24T14:24:04.425Z,31.58
2019-03-24T14:26:33.475Z,30.65
2019-03-24T14:29:02.261Z,32.67
2019-03-24T14:31:32.831Z,33.44
2019-03-24T14:34:01.948Z,35.38
2019-03-24T14:36:31.085Z,34.20
2019-03-24T14:38:59.904Z,33.73
2019-03-24T14:41:28.765Z,34.76
2019-03-24T14:43:57.569Z,35.14
2019-03-24T14:46:26.736Z,34.89
2019-03-24T14:48:55.627Z,37.56
2019-03-24T14:51:26.360Z,39.36
2019-03-24T14:53:55.173Z,39.94
2019-03-24T14:56:24.343Z,37.34
2019-03-24T14:58:53.700Z,36.12
2019-03-24T15:01:22.854Z,36.07
2019-03-24T15:03:51.713Z,34.98
2019-03-24T15:06:20.754Z,35.79
2019-03-24T15:08:49.666Z,34.38
2019-03-24T15:11:19.694Z,35.61
2019-03-24T15:13:48.475Z,35.91
2019-03-24T15:16:17.325Z,36.12
2019-03-24T15:18:47.461Z,37.30
2019-03-24T15:21:16.322Z,36.78
2019-03-24T15:23:45.096Z,37.65
2019-03-24T15:26:13.941Z,38.78
2019-03-24T15:28:42.749Z,37.40
2019-03-24T15:31:11.725Z,36.21
2019-03-24T15:33:40.971Z,36.73
2019-03-24T15:36:13.214Z,36.14
2019-03-24T15:38:42.760Z,36.13
2019-03-24T15:41:11.820Z,34.79
2019-03-24T15:43:41.207Z,35.91
2019-03-24T15:46:10.285Z,37.23
2019-03-24T15:48:39.131Z,38.70
2019-03-24T15:51:16.325Z,40.32
2019-03-24T15:53:38.793Z,42.15
2019-03-24T15:56:07.661Z,40.55
2019-03-24T15:58:36.492Z,38.37
2019-03-24T16:01:05.484Z,36.60
2019-03-24T16:03:34.507Z,35.49
2019-03-24T16:06:03.639Z,35.64
2019-03-24T16:08:32.966Z,35.68
2019-03-24T16:11:02.371Z,36.05
2019-03-24T16:13:31.390Z,36.78
2019-03-24T16:16:00.504Z,37.52
2019-03-24T16:18:30.928Z,39.53
2019-03-24T16:20:59.919Z,37.46
2019-03-24T16:23:28.758Z,38.81
2019-03-24T16:25:57.656Z,41.15
2019-03-24T16:28:26.597Z,40.88
2019-03-24T16:30:56.013Z,41.61
2019-03-24T16:33:25.916Z,41.45
2019-03-24T16:35:54.859Z,42.17
2019-03-24T16:38:23.750Z,41.98
2019-03-24T16:40:53.119Z,42.82
2019-03-24T16:43:22.321Z,44.52
2019-03-24T16:45:51.519Z,45.13
2019-03-24T16:48:20.273Z,45.71
2019-03-24T16:50:49.085Z,45.85
2019-03-24T16:53:17.998Z,46.33
2019-03-24T16:55:46.797Z,47.57
2019-03-24T16:58:15.976Z,48.76
2019-03-24T17:00:44.787Z,49.73
2019-03-24T17:03:15.499Z,50.58
2019-03-24T17:05:44.339Z,51.52
2019-03-24T17:08:13.141Z,52.25
2019-03-24T17:10:44.857Z,53.15
2019-03-24T17:13:13.949Z,53.46
2019-03-24T17:15:44.068Z,54.35
2019-03-24T17:18:13.211Z,55.15
2019-03-24T17:20:42.237Z,55.87
2019-03-24T17:23:12.332Z,57.07
2019-03-24T17:25:41.264Z,57.54
2019-03-24T17:28:10.130Z,57.87
2019-03-24T17:30:39.939Z,58.31
2019-03-24T17:33:08.789Z,58.61
2019-03-24T17:35:41.739Z,59.56
2019-03-24T17:38:13.642Z,59.42
2019-03-24T17:40:44.543Z,59.73
2019-03-24T17:43:13.514Z,59.89
2019-03-24T17:45:42.589Z,60.52
2019-03-24T17:48:11.982Z,60.71
2019-03-24T17:50:40.811Z,60.67
2019-03-24T17:53:10.204Z,60.89
2019-03-24T17:55:39.210Z,60.99
2019-03-24T17:58:07.999Z,60.99
2019-03-24T18:00:43.222Z,61.15
2019-03-24T18:03:12.524Z,60.87
2019-03-24T18:05:41.779Z,62.02
2019-03-24T18:08:10.592Z,61.69
2019-03-24T18:10:39.739Z,62.04
2019-03-24T18:13:08.684Z,61.89
2019-03-24T18:15:37.652Z,61.89
2019-03-24T18:18:06.873Z,61.61
2019-03-24T18:20:36.441Z,61.37
2019-03-24T18:23:05.681Z,61.23
2019-03-24T18:25:39.185Z,60.91
2019-03-24T18:28:08.465Z,61.23
2019-03-24T18:30:37.766Z,61.68
2019-03-24T18:33:07.058Z,62.27
2019-03-24T18:35:36.266Z,62.11
2019-03-24T18:38:05.096Z,62.48
2019-03-24T18:40:33.981Z,62.13
2019-03-24T18:43:02.768Z,61.15
2019-03-24T18:45:33.061Z,61.35
2019-03-24T18:48:01.879Z,61.10
2019-03-24T18:50:31.222Z,61.29
2019-03-24T18:53:00.512Z,60.63
2019-03-24T18:55:29.658Z,60.62
2019-03-24T18:57:58.541Z,60.08
2019-03-24T19:00:27.982Z,60.34
2019-03-24T19:02:56.787Z,60.20
2019-03-24T19:05:26.045Z,60.35
2019-03-24T19:07:54.866Z,60.51
2019-03-24T19:10:24.157Z,60.10
2019-03-24T19:12:53.410Z,60.46
2019-03-24T19:15:22.584Z,60.28
2019-03-24T19:17:51.594Z,60.82
2019-03-24T19:20:20.474Z,60.70
2019-03-24T19:22:49.287Z,60.21
2019-03-24T19:25:18.341Z,60.38
2019-03-24T19:27:47.210Z,60.60
2019-03-24T19:30:16.341Z,61.07
2019-03-24T19:32:45.574Z,61.25
2019-03-24T19:35:14.490Z,62.51
2019-03-24T19:37:44.892Z,62.73
2019-03-24T19:40:26.095Z,62.47
2019-03-24T19:42:55.215Z,63.20
2019-03-24T19:45:24.239Z,62.76
2019-03-24T19:47:53.203Z,62.49
2019-03-24T19:50:22.142Z,62.77
2019-03-24T19:52:51.140Z,63.15
2019-03-24T19:55:20.172Z,63.45
2019-03-24T19:57:49.135Z,62.88
2019-03-24T20:00:18.024Z,63.24
2019-03-24T20:02:47.047Z,63.27
2019-03-24T20:05:15.971Z,63.03
2019-03-24T20:07:48.254Z,63.04
2019-03-24T20:10:17.320Z,62.84
2019-03-24T20:12:46.950Z,62.72
2019-03-24T20:15:16.924Z,62.67
2019-03-24T20:17:45.683Z,62.84
2019-03-24T20:20:14.629Z,62.55
2019-03-24T20:22:43.456Z,62.14
2019-03-24T20:25:12.358Z,61.99
2019-03-24T20:27:41.839Z,61.84
2019-03-24T20:30:11.381Z,62.03
2019-03-24T20:32:40.450Z,61.96
2019-03-24T20:35:11.309Z,61.96
2019-03-24T20:37:40.472Z,61.78
2019-03-24T20:40:09.871Z,61.94
2019-03-24T20:42:38.771Z,61.65
2019-03-24T20:45:07.914Z,61.70
2019-03-24T20:47:36.883Z,62.13
2019-03-24T20:50:06.701Z,61.69
2019-03-24T20:52:35.698Z,61.47
2019-03-24T20:55:05.261Z,61.21
2019-03-24T20:57:34.374Z,61.65
2019-03-24T21:00:05.615Z,61.45
2019-03-24T21:02:36.317Z,61.98
2019-03-24T21:05:05.960Z,61.76
2019-03-24T21:07:35.736Z,62.05
2019-03-24T21:10:05.626Z,62.53
2019-03-24T21:12:34.546Z,62.38
2019-03-24T21:15:03.901Z,62.14
2019-03-24T21:17:34.106Z,62.10
2019-03-24T21:20:03.171Z,61.88
2019-03-24T21:22:31.992Z,61.79
2019-03-24T21:25:00.827Z,62.44
2019-03-24T21:27:30.201Z,62.43
2019-03-24T21:30:01.705Z,62.74
2019-03-24T21:32:31.935Z,62.63
2019-03-24T21:35:00.748Z,62.45
2019-03-24T21:37:29.680Z,63.07
2019-03-24T21:39:58.697Z,63.01
2019-03-24T21:42:27.463Z,62.98
2019-03-24T21:44:56.417Z,62.83
2019-03-24T21:47:24.873Z,62.93
2019-03-24T21:49:53.786Z,62.99
2019-03-24T21:52:22.981Z,63.06
2019-03-24T21:54:51.880Z,62.68
2019-03-24T21:57:34.289Z,63.29
2019-03-24T22:00:07.571Z,63.21
2019-03-24T22:02:37.057Z,62.89
2019-03-24T22:05:06.004Z,63.23
2019-03-24T22:07:34.998Z,63.72
2019-03-24T22:10:04.723Z,63.97
2019-03-24T22:12:33.986Z,64.35
2019-03-24T22:15:07.024Z,64.29
2019-03-24T22:17:35.991Z,64.43
2019-03-24T22:20:05.258Z,64.62
2019-03-24T22:22:34.548Z,64.65
2019-03-24T22:25:03.549Z,65.25
2019-03-24T22:27:32.657Z,65.05
2019-03-24T22:30:01.602Z,65.35
2019-03-24T22:32:31.646Z,65.47
2019-03-24T22:35:00.450Z,65.60
2019-03-24T22:37:29.640Z,65.50
2019-03-24T22:39:58.450Z,65.44
2019-03-24T22:42:27.831Z,66.06
2019-03-24T22:44:56.626Z,66.04
2019-03-24T22:47:25.436Z,65.99
2019-03-24T22:49:55.347Z,66.17
2019-03-24T22:52:24.326Z,66.36
2019-03-24T22:54:53.508Z,66.67
2019-03-24T22:57:22.415Z,66.67
2019-03-24T22:59:51.363Z,66.89
2019-03-24T23:02:20.185Z,66.63
2019-03-24T23:04:48.985Z,66.81
2019-03-24T23:07:17.847Z,66.81
2019-03-24T23:09:47.450Z,66.85
2019-03-24T23:12:16.274Z,66.62
2019-03-24T23:14:45.877Z,66.65
2019-03-24T23:17:14.958Z,66.32
2019-03-24T23:19:43.763Z,66.08
2019-03-24T23:22:12.636Z,65.62
2019-03-24T23:24:43.482Z,65.49
2019-03-24T23:27:12.314Z,65.38
2019-03-24T23:29:41.112Z,64.98
2019-03-24T23:32:10.280Z,64.78
2019-03-24T23:34:39.603Z,64.56
2019-03-24T23:37:08.857Z,64.20
2019-03-24T23:39:37.975Z,64.22
2019-03-24T23:42:06.940Z,64.26
2019-03-24T23:44:36.876Z,63.75
2019-03-24T23:47:05.801Z,63.91
2019-03-24T23:49:34.722Z,63.87
2019-03-24T23:52:03.900Z,63.84
2019-03-24T23:54:32.781Z,63.56
2019-03-24T23:57:01.691Z,63.47
2019-03-24T23:59:30.541Z,63.38
